createdAt,value
2022-12-25T00:00:25.564Z,78.67
2022-12-25T00:02:52.171Z,78.73
2022-12-25T00:05:18.779Z,78.35
2022-12-25T00:14:51.224Z,78.40
2022-12-25T00:20:59.289Z,79.01
2022-12-25T00:23:34.158Z,78.86
2022-12-25T00:26:06.629Z,80.32
2022-12-25T00:28:33.840Z,80.75
2022-12-25T00:37:53.689Z,80.77
2022-12-25T00:44:29.104Z,83.94
2022-12-25T00:50:56.819Z,84.09
2022-12-25T00:57:24.931Z,81.72
2022-12-25T00:59:51.455Z,81.25
2022-12-25T01:02:18.149Z,80.64
2022-12-25T01:04:44.983Z,79.49
2022-12-25T01:07:11.541Z,79.87
2022-12-25T01:09:38.664Z,80.06
2022-12-25T01:12:05.229Z,80.06
2022-12-25T01:14:31.740Z,80.46
2022-12-25T01:17:18.577Z,80.20
2022-12-25T01:19:45.092Z,79.48
2022-12-25T01:22:18.637Z,80.15
2022-12-25T01:24:53.284Z,80.35
2022-12-25T01:30:29.624Z,81.88
2022-12-25T01:33:09.200Z,81.70
2022-12-25T01:39:27.717Z,82.14
2022-12-25T01:45:18.533Z,80.78
2022-12-25T01:47:56.635Z,79.66
2022-12-25T01:50:28.189Z,79.24
2022-12-25T01:52:55.334Z,78.98
2022-12-25T01:55:22.042Z,78.67
2022-12-25T01:57:48.499Z,78.50
2022-12-25T02:03:09.036Z,77.61
2022-12-25T02:05:48.106Z,77.43
2022-12-25T02:08:18.973Z,77.89
2022-12-25T02:10:58.846Z,77.86
2022-12-25T02:13:30.469Z,78.20
2022-12-25T02:16:12.748Z,77.92
2022-12-25T02:30:08.357Z,78.72
2022-12-25T02:32:46.743Z,79.13
2022-12-25T02:35:41.546Z,79.43
2022-12-25T02:52:22.593Z,81.26
2022-12-25T02:58:32.284Z,80.53
2022-12-25T03:01:30.137Z,80.33
2022-12-25T03:03:59.124Z,80.12
2022-12-25T03:17:47.532Z,81.73
2022-12-25T03:28:23.264Z,82.21
2022-12-25T03:34:34.429Z,85.18
2022-12-25T03:37:21.858Z,84.68
2022-12-25T03:39:58.312Z,84.06
2022-12-25T03:42:33.698Z,82.92
2022-12-25T03:45:11.554Z,83.35
2022-12-25T03:47:46.477Z,83.59
2022-12-25T03:50:23.214Z,83.80
2022-12-25T03:55:58.173Z,83.31
2022-12-25T03:58:26.424Z,82.62
2022-12-25T04:00:53.124Z,82.27
2022-12-25T04:03:19.696Z,81.50
2022-12-25T04:05:46.186Z,81.68
2022-12-25T04:08:12.703Z,82.08
2022-12-25T04:10:39.222Z,83.03
2022-12-25T04:13:25.763Z,84.17
2022-12-25T04:23:53.470Z,83.75
2022-12-25T04:30:38.459Z,86.34
2022-12-25T04:33:04.943Z,86.31
2022-12-25T04:35:34.190Z,86.40
2022-12-25T04:38:00.821Z,88.68
2022-12-25T04:40:27.492Z,88.95
2022-12-25T04:42:53.979Z,89.56
2022-12-25T04:45:20.525Z,89.59
2022-12-25T04:47:46.999Z,87.78
2022-12-25T04:50:13.687Z,87.21
2022-12-25T04:52:41.530Z,86.58
2022-12-25T04:55:09.511Z,85.30
2022-12-25T04:57:36.398Z,83.98
2022-12-25T05:00:06.691Z,86.24
2022-12-25T05:05:31.774Z,84.98
2022-12-25T05:07:58.273Z,84.84
2022-12-25T05:10:24.769Z,84.63
2022-12-25T05:16:14.691Z,83.87
2022-12-25T05:18:45.032Z,83.00
2022-12-25T05:21:12.073Z,82.07
2022-12-25T05:23:38.972Z,83.09
2022-12-25T05:26:06.886Z,83.73
2022-12-25T05:28:36.495Z,83.96
2022-12-25T05:31:03.439Z,83.61
2022-12-25T05:33:30.014Z,83.05
2022-12-25T05:35:56.541Z,84.40
2022-12-25T05:38:23.104Z,84.07
2022-12-25T05:40:51.698Z,83.39
2022-12-25T05:51:14.871Z,84.02
2022-12-25T05:53:42.194Z,83.70
2022-12-25T05:56:20.294Z,84.31
2022-12-25T05:58:49.348Z,85.55
2022-12-25T06:01:21.536Z,86.01
2022-12-25T06:04:22.179Z,89.02
2022-12-25T06:06:57.869Z,89.17
2022-12-25T06:09:24.376Z,90.51
2022-12-25T06:12:13.921Z,90.32
2022-12-25T06:14:46.319Z,89.26
2022-12-25T06:17:12.803Z,87.73
2022-12-25T06:19:39.388Z,86.84
2022-12-25T06:22:05.895Z,85.89
2022-12-25T06:24:32.599Z,85.37
2022-12-25T06:26:59.119Z,86.09
2022-12-25T06:29:25.752Z,86.36
2022-12-25T06:31:54.508Z,86.89
2022-12-25T06:37:34.725Z,88.95
2022-12-25T06:40:04.670Z,88.56
2022-12-25T06:42:34.209Z,87.09
2022-12-25T06:45:05.374Z,86.60
2022-12-25T06:47:32.018Z,85.98
2022-12-25T06:50:05.891Z,84.88
2022-12-25T06:52:36.302Z,84.54
2022-12-25T06:55:02.867Z,83.87
2022-12-25T06:57:41.334Z,83.42
2022-12-25T07:00:08.557Z,83.11
2022-12-25T07:02:35.291Z,82.90
2022-12-25T07:05:02.189Z,82.65
2022-12-25T07:07:41.005Z,82.30
2022-12-25T07:10:16.703Z,82.73
2022-12-25T07:12:43.198Z,82.18
2022-12-25T07:15:10.092Z,81.94
2022-12-25T07:17:36.635Z,81.73
2022-12-25T07:20:03.308Z,81.88
2022-12-25T07:22:50.711Z,83.08
2022-12-25T07:25:17.250Z,82.05
2022-12-25T07:27:49.404Z,82.89
2022-12-25T07:30:18.777Z,81.32
2022-12-25T07:32:54.097Z,81.40
2022-12-25T07:35:20.727Z,82.00
2022-12-25T07:37:47.267Z,82.08
2022-12-25T07:43:43.632Z,80.84
2022-12-25T07:46:10.807Z,81.16
2022-12-25T07:48:37.813Z,80.61
2022-12-25T07:51:10.347Z,80.15
2022-12-25T07:53:37.542Z,80.13
2022-12-25T07:56:15.691Z,80.06
2022-12-25T07:58:42.551Z,80.17
2022-12-25T08:01:17.710Z,80.11
2022-12-25T08:03:44.574Z,79.43
2022-12-25T08:06:11.857Z,79.76
2022-12-25T08:08:43.447Z,79.51
2022-12-25T08:11:10.211Z,79.35
2022-12-25T08:13:37.641Z,80.28
2022-12-25T08:16:06.671Z,81.19
2022-12-25T08:18:33.200Z,80.71
2022-12-25T08:21:08.051Z,81.19
2022-12-25T08:23:39.275Z,81.18
2022-12-25T08:26:09.078Z,81.40
2022-12-25T08:28:35.991Z,80.67
2022-12-25T08:31:10.469Z,81.05
2022-12-25T08:33:39.989Z,80.30
2022-12-25T08:36:08.351Z,79.79
2022-12-25T08:38:40.886Z,79.06
2022-12-25T08:41:07.784Z,78.07
2022-12-25T08:43:34.355Z,77.73
2022-12-25T08:46:01.153Z,77.68
2022-12-25T08:48:27.967Z,77.22
2022-12-25T08:50:54.576Z,76.78
2022-12-25T08:53:21.671Z,76.90
2022-12-25T08:56:10.218Z,76.69
2022-12-25T08:58:37.179Z,76.50
2022-12-25T09:01:04.121Z,76.91
2022-12-25T09:03:34.017Z,77.47
2022-12-25T09:06:05.759Z,76.68
2022-12-25T09:08:32.607Z,75.39
2022-12-25T09:11:10.907Z,75.28
2022-12-25T09:13:41.575Z,76.01
2022-12-25T09:16:14.617Z,74.73
2022-12-25T09:18:41.350Z,74.67
2022-12-25T09:21:19.758Z,73.68
2022-12-25T09:23:46.328Z,73.44
2022-12-25T09:26:17.351Z,72.37
2022-12-25T09:28:55.424Z,72.38
2022-12-25T09:31:22.920Z,72.59
2022-12-25T09:34:02.701Z,73.55
2022-12-25T09:36:29.218Z,72.59
2022-12-25T09:39:01.661Z,73.03
2022-12-25T09:41:51.781Z,72.87
2022-12-25T09:44:21.887Z,73.33
2022-12-25T09:46:55.800Z,73.18
2022-12-25T09:49:39.262Z,72.99
2022-12-25T09:52:13.524Z,72.68
2022-12-25T09:55:19.776Z,72.20
2022-12-25T09:57:55.895Z,72.64
2022-12-25T10:00:25.969Z,75.58
2022-12-25T10:03:10.628Z,80.35
2022-12-25T10:06:15.286Z,79.70
2022-12-25T10:08:47.680Z,80.98
2022-12-25T10:11:42.433Z,81.40
2022-12-25T10:14:37.399Z,81.74
2022-12-25T10:17:21.423Z,82.93
2022-12-25T10:20:02.983Z,84.05
2022-12-25T10:22:40.275Z,83.74
2022-12-25T10:25:15.420Z,83.64
2022-12-25T10:27:43.141Z,82.25
2022-12-25T10:30:22.200Z,80.16
2022-12-25T10:32:49.429Z,78.73
2022-12-25T10:35:21.728Z,77.12
2022-12-25T10:38:13.266Z,76.44
2022-12-25T10:40:50.312Z,75.39
2022-12-25T10:43:29.546Z,73.91
2022-12-25T10:45:56.464Z,73.82
2022-12-25T10:48:27.310Z,72.12
2022-12-25T10:50:54.073Z,72.77
2022-12-25T10:53:26.877Z,71.94
2022-12-25T10:55:55.059Z,71.97
2022-12-25T10:58:22.930Z,71.07
2022-12-25T11:00:54.746Z,71.75
2022-12-25T11:03:24.799Z,71.05
2022-12-25T11:05:51.587Z,72.76
2022-12-25T11:08:23.120Z,73.83
2022-12-25T11:10:56.313Z,74.39
2022-12-25T11:13:29.945Z,73.19
2022-12-25T11:16:04.362Z,74.11
2022-12-25T11:18:51.457Z,75.06
2022-12-25T11:21:21.865Z,73.78
2022-12-25T11:23:50.855Z,73.29
2022-12-25T11:26:18.331Z,73.40
2022-12-25T11:28:45.811Z,74.05
2022-12-25T11:31:17.964Z,74.27
2022-12-25T11:33:51.894Z,73.58
2022-12-25T11:36:42.028Z,71.77
2022-12-25T11:39:12.767Z,70.94
2022-12-25T11:41:39.687Z,71.22
2022-12-25T11:44:11.621Z,71.27
2022-12-25T11:46:42.257Z,71.84
2022-12-25T11:49:14.796Z,72.25
2022-12-25T11:51:44.116Z,72.21
2022-12-25T11:54:10.838Z,71.91
2022-12-25T11:56:38.151Z,70.51
2022-12-25T11:59:30.693Z,70.78
2022-12-25T12:02:33.069Z,70.40
2022-12-25T12:05:09.354Z,70.69
2022-12-25T12:07:37.615Z,69.44
2022-12-25T12:10:21.145Z,68.92
2022-12-25T12:13:05.806Z,69.28
2022-12-25T12:15:48.704Z,68.64
2022-12-25T12:18:27.637Z,66.21
2022-12-25T12:21:06.068Z,67.25
2022-12-25T12:23:53.181Z,67.17
2022-12-25T12:26:30.974Z,67.92
2022-12-25T12:28:59.666Z,67.93
2022-12-25T12:31:39.136Z,67.01
2022-12-25T12:34:05.829Z,66.69
2022-12-25T12:36:36.921Z,68.18
2022-12-25T12:39:04.289Z,69.12
2022-12-25T12:41:46.434Z,68.24
2022-12-25T12:44:14.619Z,68.57
2022-12-25T12:46:54.045Z,67.57
2022-12-25T12:49:20.466Z,68.66
2022-12-25T12:51:47.135Z,69.13
2022-12-25T12:54:25.708Z,68.87
2022-12-25T12:56:59.799Z,69.58
2022-12-25T12:59:27.904Z,69.65
2022-12-25T13:02:19.891Z,69.29
2022-12-25T13:05:05.076Z,68.79
2022-12-25T13:08:19.544Z,69.33
2022-12-25T13:10:51.240Z,68.91
2022-12-25T13:13:21.989Z,69.84
2022-12-25T13:15:49.908Z,69.95
2022-12-25T13:18:16.549Z,70.18
2022-12-25T13:21:04.161Z,69.74
2022-12-25T13:23:33.363Z,69.58
2022-12-25T13:26:02.218Z,69.62
2022-12-25T13:28:38.774Z,68.59
2022-12-25T13:31:13.770Z,69.87
2022-12-25T13:33:44.253Z,69.81
2022-12-25T13:36:12.882Z,70.33
2022-12-25T13:38:47.473Z,68.89
2022-12-25T13:41:22.260Z,68.86
2022-12-25T13:43:48.936Z,69.02
2022-12-25T13:46:15.922Z,69.71
2022-12-25T13:48:42.824Z,70.15
2022-12-25T13:51:14.733Z,71.88
2022-12-25T13:53:41.254Z,71.46
2022-12-25T13:56:13.624Z,71.92
2022-12-25T13:58:43.138Z,73.07
2022-12-25T14:01:12.405Z,73.11
2022-12-25T14:03:48.187Z,72.45
2022-12-25T14:06:24.184Z,72.98
2022-12-25T14:08:51.293Z,72.67
2022-12-25T14:11:23.425Z,73.39
2022-12-25T14:14:02.350Z,72.91
2022-12-25T14:19:32.630Z,73.51
2022-12-25T14:22:11.106Z,73.84
2022-12-25T14:24:57.284Z,73.74
2022-12-25T14:27:28.688Z,73.67
2022-12-25T14:30:05.225Z,73.94
2022-12-25T14:32:48.740Z,74.10
2022-12-25T14:39:45.400Z,74.10
2022-12-25T14:42:21.183Z,73.97
2022-12-25T14:44:56.127Z,74.68
2022-12-25T14:47:49.302Z,75.54
2022-12-25T14:50:42.090Z,75.58
2022-12-25T14:53:22.665Z,75.49
2022-12-25T14:55:55.595Z,75.68
2022-12-25T14:58:31.969Z,75.02
2022-12-25T15:01:05.079Z,75.98
2022-12-25T15:03:40.810Z,75.96
2022-12-25T15:06:25.073Z,75.86
2022-12-25T15:08:58.599Z,75.51
2022-12-25T15:11:25.234Z,75.25
2022-12-25T15:14:15.033Z,76.13
2022-12-25T15:16:44.355Z,75.74
2022-12-25T15:19:20.579Z,75.31
2022-12-25T15:21:51.536Z,75.61
2022-12-25T15:24:18.106Z,75.36
2022-12-25T15:26:44.757Z,76.93
2022-12-25T15:29:11.349Z,78.55
2022-12-25T15:31:41.378Z,80.20
2022-12-25T15:34:19.440Z,80.86
2022-12-25T15:36:46.654Z,82.44
2022-12-25T15:39:31.530Z,82.60
2022-12-25T15:42:01.201Z,82.50
2022-12-25T15:44:30.592Z,82.07
2022-12-25T15:46:57.108Z,81.88
2022-12-25T15:49:26.697Z,82.40
2022-12-25T15:51:56.423Z,83.36
2022-12-25T15:54:35.759Z,82.90
2022-12-25T15:57:19.780Z,81.05
2022-12-25T15:59:46.744Z,80.54
2022-12-25T16:02:16.100Z,82.33
2022-12-25T16:04:43.027Z,82.36
2022-12-25T16:10:15.870Z,83.26
2022-12-25T16:12:42.710Z,82.57
2022-12-25T16:15:15.728Z,82.88
2022-12-25T16:17:42.616Z,82.28
2022-12-25T16:20:18.698Z,81.25
2022-12-25T16:22:45.207Z,81.69
2022-12-25T16:25:21.200Z,81.75
2022-12-25T16:27:47.817Z,83.81
2022-12-25T16:30:16.163Z,82.89
2022-12-25T16:32:43.556Z,82.03
2022-12-25T16:35:10.941Z,81.43
2022-12-25T16:37:41.786Z,81.04
2022-12-25T16:40:08.970Z,81.26
2022-12-25T16:42:38.666Z,80.52
2022-12-25T16:45:05.818Z,83.25
2022-12-25T16:47:32.443Z,82.51
2022-12-25T16:50:00.501Z,83.19
2022-12-25T16:52:27.208Z,84.44
2022-12-25T16:54:56.661Z,83.84
2022-12-25T16:57:23.284Z,85.51
2022-12-25T16:59:49.930Z,85.50
2022-12-25T17:02:50.027Z,85.02
2022-12-25T17:05:16.728Z,85.00
2022-12-25T17:07:45.691Z,84.94
2022-12-25T17:10:41.161Z,85.08
2022-12-25T17:13:17.087Z,85.75
2022-12-25T17:15:55.963Z,85.46
2022-12-25T17:18:34.751Z,84.81
2022-12-25T17:21:01.390Z,84.60
2022-12-25T17:23:31.047Z,83.57
2022-12-25T17:26:06.972Z,84.43
2022-12-25T17:28:35.071Z,83.95
2022-12-25T17:31:13.068Z,83.40
2022-12-25T17:33:41.255Z,82.66
2022-12-25T17:36:10.963Z,81.74
2022-12-25T17:38:47.155Z,81.57
2022-12-25T17:56:00.835Z,83.18
2022-12-25T17:58:34.990Z,82.79
2022-12-25T18:04:22.216Z,82.54
2022-12-25T18:06:51.496Z,83.07
2022-12-25T18:09:21.064Z,83.17
2022-12-25T18:11:47.590Z,82.44
2022-12-25T18:14:16.208Z,82.22
2022-12-25T18:16:53.571Z,83.10
2022-12-25T18:19:29.083Z,83.43
2022-12-25T18:21:55.594Z,82.67
2022-12-25T18:24:29.040Z,83.57
2022-12-25T18:26:58.135Z,82.63
2022-12-25T18:29:34.850Z,81.46
2022-12-25T18:32:02.890Z,82.20
2022-12-25T18:34:30.446Z,82.86
2022-12-25T18:36:57.024Z,82.47
2022-12-25T18:39:24.523Z,81.98
2022-12-25T18:45:26.214Z,81.13
2022-12-25T18:47:56.005Z,81.91
2022-12-25T18:50:25.712Z,81.30
2022-12-25T18:52:52.257Z,81.52
2022-12-25T18:55:19.348Z,81.63
2022-12-25T18:57:46.404Z,82.45
2022-12-25T19:00:13.611Z,83.07
2022-12-25T19:02:40.277Z,82.39
2022-12-25T19:05:07.145Z,82.24
2022-12-25T19:07:33.752Z,82.47
2022-12-25T19:10:00.252Z,82.42
2022-12-25T19:12:26.825Z,82.99
2022-12-25T19:14:53.534Z,81.83
2022-12-25T19:17:20.009Z,80.78
2022-12-25T19:19:46.671Z,79.83
2022-12-25T19:22:13.466Z,79.38
2022-12-25T19:24:40.098Z,79.45
2022-12-25T19:27:06.907Z,79.02
2022-12-25T19:29:33.602Z,79.26
2022-12-25T19:32:02.305Z,81.04
2022-12-25T19:34:29.156Z,80.69
2022-12-25T19:36:56.796Z,80.61
2022-12-25T19:39:25.111Z,80.73
2022-12-25T19:41:54.802Z,81.38
2022-12-25T19:44:21.345Z,82.20
2022-12-25T19:46:49.027Z,83.17
2022-12-25T19:49:15.521Z,83.24
2022-12-25T19:51:45.122Z,83.58
2022-12-25T19:54:13.541Z,83.60
2022-12-25T19:56:42.918Z,83.46
2022-12-25T19:59:12.081Z,84.35
2022-12-25T20:01:38.995Z,84.58
2022-12-25T20:04:07.191Z,84.58
2022-12-25T20:06:34.495Z,84.04
2022-12-25T20:09:05.237Z,83.67
2022-12-25T20:11:33.342Z,83.92
2022-12-25T20:14:00.759Z,85.31
2022-12-25T20:16:27.644Z,84.12
2022-12-25T20:18:55.323Z,83.35
2022-12-25T20:21:22.886Z,84.50
2022-12-25T20:23:51.503Z,84.97
2022-12-25T20:26:20.193Z,84.71
2022-12-25T20:28:46.770Z,85.01
2022-12-25T20:31:15.795Z,84.12
2022-12-25T20:33:42.786Z,83.28
2022-12-25T20:36:11.928Z,83.40
2022-12-25T20:38:38.466Z,83.84
2022-12-25T20:41:30.232Z,83.85
2022-12-25T20:43:57.332Z,85.09
2022-12-25T20:46:24.910Z,84.22
2022-12-25T20:48:51.644Z,85.90
2022-12-25T20:51:23.358Z,84.70
2022-12-25T20:53:50.635Z,85.57
2022-12-25T20:56:20.574Z,85.16
2022-12-25T20:58:47.298Z,84.61
2022-12-25T21:01:16.318Z,83.89
2022-12-25T21:03:46.125Z,83.77
2022-12-25T21:06:13.150Z,83.84
2022-12-25T21:08:39.962Z,84.42
2022-12-25T21:11:07.043Z,84.02
2022-12-25T21:13:41.001Z,84.96
2022-12-25T21:16:10.550Z,83.78
2022-12-25T21:18:37.107Z,84.91
2022-12-25T21:21:05.288Z,84.77
2022-12-25T21:23:33.665Z,84.63
2022-12-25T21:26:00.403Z,85.69
2022-12-25T21:28:27.235Z,84.97
2022-12-25T21:30:53.753Z,84.34
2022-12-25T21:33:20.446Z,83.63
2022-12-25T21:35:47.010Z,83.17
2022-12-25T21:38:13.544Z,82.92
2022-12-25T21:40:40.344Z,82.66
2022-12-25T21:43:06.891Z,84.52
2022-12-25T21:45:34.843Z,85.13
2022-12-25T21:48:03.285Z,84.12
2022-12-25T21:50:32.493Z,84.07
2022-12-25T21:53:02.594Z,84.27
2022-12-25T21:55:29.214Z,85.09
2022-12-25T21:57:55.717Z,85.07
2022-12-25T22:00:22.207Z,84.44
2022-12-25T22:02:49.159Z,84.29
2022-12-25T22:05:15.844Z,83.42
2022-12-25T22:07:42.347Z,83.98
2022-12-25T22:10:08.965Z,84.99
2022-12-25T22:12:35.553Z,84.79
2022-12-25T22:15:07.208Z,85.83
2022-12-25T22:17:36.817Z,86.10
2022-12-25T22:20:05.141Z,85.42
2022-12-25T22:22:31.929Z,83.76
2022-12-25T22:25:00.192Z,82.67
2022-12-25T22:27:33.684Z,82.50
2022-12-25T22:30:00.624Z,82.14
2022-12-25T22:32:32.560Z,82.24
2022-12-25T22:34:59.047Z,82.03
2022-12-25T22:37:25.550Z,82.04
2022-12-25T22:39:52.136Z,81.52
2022-12-25T22:42:18.933Z,80.93
2022-12-25T22:44:49.817Z,83.26
2022-12-25T22:47:16.301Z,84.89
2022-12-25T22:49:42.845Z,85.79
2022-12-25T22:52:09.815Z,85.15
2022-12-25T22:54:37.157Z,83.80
2022-12-25T22:57:03.883Z,83.62
2022-12-25T22:59:30.434Z,82.80
2022-12-25T23:01:57.094Z,82.72
2022-12-25T23:04:23.701Z,82.13
2022-12-25T23:06:50.741Z,83.48
2022-12-25T23:09:24.447Z,83.75
2022-12-25T23:11:51.508Z,85.39
2022-12-25T23:14:25.698Z,86.08
2022-12-25T23:16:52.291Z,86.45
2022-12-25T23:19:18.837Z,86.50
2022-12-25T23:21:45.418Z,86.44
2022-12-25T23:24:12.091Z,86.75
2022-12-25T23:26:38.569Z,86.84
2022-12-25T23:29:05.033Z,85.93
2022-12-25T23:31:37.034Z,85.74
2022-12-25T23:34:04.521Z,83.88
2022-12-25T23:36:31.512Z,85.04
2022-12-25T23:39:03.087Z,85.43
2022-12-25T23:41:33.592Z,85.90
2022-12-25T23:44:00.198Z,85.29
2022-12-25T23:46:26.863Z,86.30
2022-12-25T23:48:53.355Z,85.45
2022-12-25T23:51:20.028Z,85.49
2022-12-25T23:53:46.509Z,85.80
2022-12-25T23:56:13.114Z,87.32
2022-12-25T23:58:39.797Z,87.33
